Terminal Aerodrome Forecast
Issued by NWS Lake Charles, LA

Home | Current Version | Previous Version | Text Only | Print | Product List | Glossary On
Versions: 1 2 3 4 5 6 7 8 9 10 11 12 13 14 15 16 17 18 19
000
FTUS44 KLCH 300830 AAB
TAFAEX
TAF AMD
KAEX 300830Z 3009/0106 VRB05KT P6SM VCSH SCT015 BKN200
     FM301500 24008KT P6SM VCTS SCT035CB
     FM010200 VRB05KT P6SM SCT250=

USA.gov is the U.S. government's official web portal to all federal, state and local government web resources and services.